sensor_id;sensor_type;location;lat;lon;timestamp;P1;durP1;ratioP1;P2;durP2;ratioP2
71606;SDS011;60641;53.556;9.914;2024-03-23T00:54:43;19.20;;;3.00;;
71606;SDS011;60641;53.556;9.914;2024-03-23T00:57:09;18.10;;;3.00;;
71606;SDS011;60641;53.556;9.914;2024-03-23T00:59:36;14.60;;;2.60;;
71606;SDS011;60641;53.556;9.914;2024-03-23T01:02:02;19.20;;;2.80;;
71606;SDS011;60641;53.556;9.914;2024-03-23T01:04:28;19.00;;;2.90;;
71606;SDS011;60641;53.556;9.914;2024-03-23T01:06:55;16.30;;;3.00;;
71606;SDS011;60641;53.556;9.914;2024-03-23T01:09:21;22.10;;;3.60;;
71606;SDS011;60641;53.556;9.914;2024-03-23T01:11:48;16.40;;;3.30;;
71606;SDS011;60641;53.556;9.914;2024-03-23T01:14:15;20.30;;;3.40;;
71606;SDS011;60641;53.556;9.914;2024-03-23T01:16:41;17.60;;;3.10;;
71606;SDS011;60641;53.556;9.914;2024-03-23T01:19:07;21.40;;;2.80;;
71606;SDS011;60641;53.556;9.914;2024-03-23T01:21:33;15.00;;;2.50;;
71606;SDS011;60641;53.556;9.914;2024-03-23T01:24:00;15.10;;;2.70;;
71606;SDS011;60641;53.556;9.914;2024-03-23T01:26:26;15.40;;;3.00;;
71606;SDS011;60641;53.556;9.914;2024-03-23T01:28:53;16.40;;;2.60;;
71606;SDS011;60641;53.556;9.914;2024-03-23T01:31:19;23.60;;;3.00;;
71606;SDS011;60641;53.556;9.914;2024-03-23T01:33:45;18.50;;;2.50;;
71606;SDS011;60641;53.556;9.914;2024-03-23T01:36:11;19.70;;;2.80;;
71606;SDS011;60641;53.556;9.914;2024-03-23T01:38:38;17.20;;;2.40;;
71606;SDS011;60641;53.556;9.914;2024-03-23T01:41:04;24.00;;;3.30;;
71606;SDS011;60641;53.556;9.914;2024-03-23T01:43:31;24.20;;;2.70;;
71606;SDS011;60641;53.556;9.914;2024-03-23T01:45:58;19.70;;;3.00;;
71606;SDS011;60641;53.556;9.914;2024-03-23T01:48:24;18.50;;;2.40;;
71606;SDS011;60641;53.556;9.914;2024-03-23T01:50:50;20.50;;;2.70;;
71606;SDS011;60641;53.556;9.914;2024-03-23T01:53:17;15.50;;;2.50;;
71606;SDS011;60641;53.556;9.914;2024-03-23T01:55:45;21.80;;;2.70;;
71606;SDS011;60641;53.556;9.914;2024-03-23T01:58:11;18.60;;;3.00;;
71606;SDS011;60641;53.556;9.914;2024-03-23T02:00:38;19.20;;;2.60;;
71606;SDS011;60641;53.556;9.914;2024-03-23T02:03:21;19.90;;;2.60;;
71606;SDS011;60641;53.556;9.914;2024-03-23T02:05:49;15.70;;;2.40;;
71606;SDS011;60641;53.556;9.914;2024-03-23T02:08:16;17.90;;;2.40;;
71606;SDS011;60641;53.556;9.914;2024-03-23T02:10:43;17.90;;;2.30;;
71606;SDS011;60641;53.556;9.914;2024-03-23T02:13:10;18.50;;;2.80;;
71606;SDS011;60641;53.556;9.914;2024-03-23T02:15:36;14.80;;;2.40;;
71606;SDS011;60641;53.556;9.914;2024-03-23T02:18:04;14.10;;;2.40;;
71606;SDS011;60641;53.556;9.914;2024-03-23T02:20:32;16.50;;;2.70;;
71606;SDS011;60641;53.556;9.914;2024-03-23T02:22:59;15.40;;;2.40;;
71606;SDS011;60641;53.556;9.914;2024-03-23T02:25:25;19.60;;;2.80;;
71606;SDS011;60641;53.556;9.914;2024-03-23T02:27:51;17.20;;;3.10;;
71606;SDS011;60641;53.556;9.914;2024-03-23T02:30:20;17.30;;;2.70;;
71606;SDS011;60641;53.556;9.914;2024-03-23T02:32:46;18.00;;;2.70;;
71606;SDS011;60641;53.556;9.914;2024-03-23T02:35:12;16.20;;;2.30;;
71606;SDS011;60641;53.556;9.914;2024-03-23T02:37:39;19.40;;;2.30;;
71606;SDS011;60641;53.556;9.914;2024-03-23T02:40:05;15.30;;;2.10;;
71606;SDS011;60641;53.556;9.914;2024-03-23T02:42:32;15.50;;;2.20;;
71606;SDS011;60641;53.556;9.914;2024-03-23T02:44:58;19.10;;;2.40;;
71606;SDS011;60641;53.556;9.914;2024-03-23T02:47:25;18.60;;;3.00;;
71606;SDS011;60641;53.556;9.914;2024-03-23T02:49:51;17.50;;;2.40;;
71606;SDS011;60641;53.556;9.914;2024-03-23T02:52:17;19.60;;;2.90;;
71606;SDS011;60641;53.556;9.914;2024-03-23T02:54:43;19.30;;;2.90;;
71606;SDS011;60641;53.556;9.914;2024-03-23T02:57:11;22.20;;;2.30;;
71606;SDS011;60641;53.556;9.914;2024-03-23T02:59:37;15.00;;;2.00;;
71606;SDS011;60641;53.556;9.914;2024-03-23T03:02:04;15.20;;;2.40;;
71606;SDS011;60641;53.556;9.914;2024-03-23T03:04:30;19.70;;;2.40;;
71606;SDS011;60641;53.556;9.914;2024-03-23T03:06:57;15.60;;;2.60;;
71606;SDS011;60641;53.556;9.914;2024-03-23T03:09:23;19.30;;;2.60;;
71606;SDS011;60641;53.556;9.914;2024-03-23T03:11:49;17.20;;;2.60;;
71606;SDS011;60641;53.556;9.914;2024-03-23T03:14:16;15.80;;;2.70;;
71606;SDS011;60641;53.556;9.914;2024-03-23T03:16:42;21.60;;;2.90;;
71606;SDS011;60641;53.556;9.914;2024-03-23T03:19:08;15.70;;;2.20;;
71606;SDS011;60641;53.556;9.914;2024-03-23T03:21:36;15.40;;;2.70;;
71606;SDS011;60641;53.556;9.914;2024-03-23T03:24:04;21.80;;;3.20;;
71606;SDS011;60641;53.556;9.914;2024-03-23T03:26:32;16.80;;;2.60;;
71606;SDS011;60641;53.556;9.914;2024-03-23T03:28:58;21.20;;;2.90;;
71606;SDS011;60641;53.556;9.914;2024-03-23T03:31:24;17.20;;;2.60;;
71606;SDS011;60641;53.556;9.914;2024-03-23T03:33:51;15.00;;;2.70;;
71606;SDS011;60641;53.556;9.914;2024-03-23T03:36:17;18.10;;;2.40;;
71606;SDS011;60641;53.556;9.914;2024-03-23T03:38:44;14.60;;;2.20;;
71606;SDS011;60641;53.556;9.914;2024-03-23T03:41:10;21.40;;;2.70;;
71606;SDS011;60641;53.556;9.914;2024-03-23T03:43:36;20.10;;;2.80;;
71606;SDS011;60641;53.556;9.914;2024-03-23T03:46:04;17.00;;;2.50;;
71606;SDS011;60641;53.556;9.914;2024-03-23T03:48:30;13.50;;;2.30;;
71606;SDS011;60641;53.556;9.914;2024-03-23T03:50:56;16.20;;;2.40;;
71606;SDS011;60641;53.556;9.914;2024-03-23T03:53:22;16.60;;;2.40;;
71606;SDS011;60641;53.556;9.914;2024-03-23T03:55:49;15.80;;;2.70;;
71606;SDS011;60641;53.556;9.914;2024-03-23T03:58:15;16.40;;;2.60;;
71606;SDS011;60641;53.556;9.914;2024-03-23T04:00:41;17.00;;;2.60;;
71606;SDS011;60641;53.556;9.914;2024-03-23T04:03:08;17.30;;;2.50;;
71606;SDS011;60641;53.556;9.914;2024-03-23T04:05:34;16.90;;;2.40;;
71606;SDS011;60641;53.556;9.914;2024-03-23T04:08:00;18.80;;;2.70;;
71606;SDS011;60641;53.556;9.914;2024-03-23T04:10:27;16.80;;;2.60;;
71606;SDS011;60641;53.556;9.914;2024-03-23T04:12:53;20.90;;;2.60;;
71606;SDS011;60641;53.556;9.914;2024-03-23T04:15:22;13.00;;;2.40;;
71606;SDS011;60641;53.556;9.914;2024-03-23T04:17:49;14.90;;;2.40;;
71606;SDS011;60641;53.556;9.914;2024-03-23T04:20:15;18.20;;;2.90;;
71606;SDS011;60641;53.556;9.914;2024-03-23T04:22:43;16.10;;;2.30;;
71606;SDS011;60641;53.556;9.914;2024-03-23T04:25:09;19.10;;;2.70;;
71606;SDS011;60641;53.556;9.914;2024-03-23T04:27:36;17.50;;;2.30;;
71606;SDS011;60641;53.556;9.914;2024-03-23T04:30:03;17.50;;;2.60;;
71606;SDS011;60641;53.556;9.914;2024-03-23T04:32:39;17.60;;;2.40;;
71606;SDS011;60641;53.556;9.914;2024-03-23T04:35:06;15.60;;;2.30;;
71606;SDS011;60641;53.556;9.914;2024-03-23T04:37:32;16.50;;;2.50;;
71606;SDS011;60641;53.556;9.914;2024-03-23T04:40:00;15.60;;;2.70;;
71606;SDS011;60641;53.556;9.914;2024-03-23T04:42:30;19.10;;;2.30;;
71606;SDS011;60641;53.556;9.914;2024-03-23T04:44:57;16.00;;;2.10;;
71606;SDS011;60641;53.556;9.914;2024-03-23T04:47:24;18.10;;;2.40;;
71606;SDS011;60641;53.556;9.914;2024-03-23T04:49:50;16.20;;;2.60;;
71606;SDS011;60641;53.556;9.914;2024-03-23T04:52:17;17.10;;;2.70;;
71606;SDS011;60641;53.556;9.914;2024-03-23T04:54:43;20.80;;;2.70;;
71606;SDS011;60641;53.556;9.914;2024-03-23T04:57:11;18.90;;;2.40;;
71606;SDS011;60641;53.556;9.914;2024-03-23T04:59:37;17.90;;;2.40;;
71606;SDS011;60641;53.556;9.914;2024-03-23T05:02:04;15.70;;;2.30;;
71606;SDS011;60641;53.556;9.914;2024-03-23T05:04:30;14.50;;;2.20;;
71606;SDS011;60641;53.556;9.914;2024-03-23T05:06:58;16.80;;;2.80;;
71606;SDS011;60641;53.556;9.914;2024-03-23T05:09:24;19.80;;;2.70;;
71606;SDS011;60641;53.556;9.914;2024-03-23T05:11:56;17.30;;;2.30;;
71606;SDS011;60641;53.556;9.914;2024-03-23T05:14:22;16.50;;;2.60;;
71606;SDS011;60641;53.556;9.914;2024-03-23T05:16:49;16.30;;;2.80;;
71606;SDS011;60641;53.556;9.914;2024-03-23T05:19:15;15.40;;;2.40;;
71606;SDS011;60641;53.556;9.914;2024-03-23T05:21:41;14.20;;;2.50;;
71606;SDS011;60641;53.556;9.914;2024-03-23T05:24:08;16.40;;;2.60;;
71606;SDS011;60641;53.556;9.914;2024-03-23T05:26:34;12.50;;;2.10;;
71606;SDS011;60641;53.556;9.914;2024-03-23T05:29:02;13.50;;;2.60;;
71606;SDS011;60641;53.556;9.914;2024-03-23T05:31:29;18.90;;;2.50;;
71606;SDS011;60641;53.556;9.914;2024-03-23T05:33:56;14.70;;;2.20;;
71606;SDS011;60641;53.556;9.914;2024-03-23T05:36:23;19.40;;;2.60;;
71606;SDS011;60641;53.556;9.914;2024-03-23T05:38:52;15.80;;;2.50;;
71606;SDS011;60641;53.556;9.914;2024-03-23T05:41:18;17.80;;;2.70;;
71606;SDS011;60641;53.556;9.914;2024-03-23T05:43:45;16.20;;;2.20;;
71606;SDS011;60641;53.556;9.914;2024-03-23T05:46:11;19.00;;;2.50;;
71606;SDS011;60641;53.556;9.914;2024-03-23T05:48:38;13.90;;;2.30;;
71606;SDS011;60641;53.556;9.914;2024-03-23T05:51:04;18.60;;;2.60;;
71606;SDS011;60641;53.556;9.914;2024-03-23T05:53:30;16.70;;;2.50;;
71606;SDS011;60641;53.556;9.914;2024-03-23T05:56:00;17.60;;;2.40;;
71606;SDS011;60641;53.556;9.914;2024-03-23T05:58:29;14.40;;;2.50;;
71606;SDS011;60641;53.556;9.914;2024-03-23T06:00:59;15.70;;;2.40;;
71606;SDS011;60641;53.556;9.914;2024-03-23T06:03:30;15.90;;;2.10;;
71606;SDS011;60641;53.556;9.914;2024-03-23T06:05:56;16.10;;;2.40;;
71606;SDS011;60641;53.556;9.914;2024-03-23T06:08:23;19.10;;;2.60;;
71606;SDS011;60641;53.556;9.914;2024-03-23T06:10:50;15.80;;;2.30;;
71606;SDS011;60641;53.556;9.914;2024-03-23T06:13:17;17.30;;;2.40;;
71606;SDS011;60641;53.556;9.914;2024-03-23T06:15:44;21.90;;;2.40;;
71606;SDS011;60641;53.556;9.914;2024-03-23T06:18:12;19.20;;;2.40;;
71606;SDS011;60641;53.556;9.914;2024-03-23T06:20:38;15.30;;;2.10;;
71606;SDS011;60641;53.556;9.914;2024-03-23T06:23:05;16.50;;;2.40;;
71606;SDS011;60641;53.556;9.914;2024-03-23T06:25:31;14.90;;;2.20;;
71606;SDS011;60641;53.556;9.914;2024-03-23T06:27:58;14.20;;;2.50;;
71606;SDS011;60641;53.556;9.914;2024-03-23T06:30:24;17.50;;;2.20;;
71606;SDS011;60641;53.556;9.914;2024-03-23T06:32:53;18.00;;;2.10;;
71606;SDS011;60641;53.556;9.914;2024-03-23T06:35:19;15.90;;;2.30;;
71606;SDS011;60641;53.556;9.914;2024-03-23T06:37:45;14.40;;;2.10;;
71606;SDS011;60641;53.556;9.914;2024-03-23T06:40:12;15.30;;;2.00;;
71606;SDS011;60641;53.556;9.914;2024-03-23T06:42:38;17.90;;;2.70;;
71606;SDS011;60641;53.556;9.914;2024-03-23T06:45:05;13.50;;;2.10;;
71606;SDS011;60641;53.556;9.914;2024-03-23T06:47:32;14.60;;;2.50;;
71606;SDS011;60641;53.556;9.914;2024-03-23T06:50:02;14.20;;;2.40;;
71606;SDS011;60641;53.556;9.914;2024-03-23T06:52:29;14.20;;;1.90;;
71606;SDS011;60641;53.556;9.914;2024-03-23T06:54:56;17.20;;;2.60;;
71606;SDS011;60641;53.556;9.914;2024-03-23T06:57:23;15.30;;;2.20;;
71606;SDS011;60641;53.556;9.914;2024-03-23T06:59:49;16.30;;;2.60;;
71606;SDS011;60641;53.556;9.914;2024-03-23T07:02:16;15.90;;;2.40;;
71606;SDS011;60641;53.556;9.914;2024-03-23T07:04:42;16.60;;;2.40;;
71606;SDS011;60641;53.556;9.914;2024-03-23T07:07:08;16.20;;;2.30;;
71606;SDS011;60641;53.556;9.914;2024-03-23T07:09:35;16.40;;;2.40;;
71606;SDS011;60641;53.556;9.914;2024-03-23T07:12:01;15.40;;;2.60;;
71606;SDS011;60641;53.556;9.914;2024-03-23T07:14:29;15.50;;;2.30;;
71606;SDS011;60641;53.556;9.914;2024-03-23T07:16:56;13.10;;;2.60;;
71606;SDS011;60641;53.556;9.914;2024-03-23T07:19:23;16.10;;;3.70;;
71606;SDS011;60641;53.556;9.914;2024-03-23T07:21:50;18.80;;;3.20;;
71606;SDS011;60641;53.556;9.914;2024-03-23T07:24:17;20.00;;;2.90;;
71606;SDS011;60641;53.556;9.914;2024-03-23T07:26:43;14.70;;;2.80;;
71606;SDS011;60641;53.556;9.914;2024-03-23T07:29:09;16.20;;;2.50;;
71606;SDS011;60641;53.556;9.914;2024-03-23T07:31:36;19.30;;;3.90;;
71606;SDS011;60641;53.556;9.914;2024-03-23T07:34:02;17.60;;;3.00;;
71606;SDS011;60641;53.556;9.914;2024-03-23T07:36:29;14.40;;;2.50;;
71606;SDS011;60641;53.556;9.914;2024-03-23T07:38:55;14.70;;;2.50;;
71606;SDS011;60641;53.556;9.914;2024-03-23T07:41:21;15.80;;;2.60;;
71606;SDS011;60641;53.556;9.914;2024-03-23T07:43:48;15.70;;;3.10;;
71606;SDS011;60641;53.556;9.914;2024-03-23T07:46:15;18.40;;;3.30;;
71606;SDS011;60641;53.556;9.914;2024-03-23T07:48:41;18.00;;;2.90;;
71606;SDS011;60641;53.556;9.914;2024-03-23T07:51:13;15.60;;;2.50;;
71606;SDS011;60641;53.556;9.914;2024-03-23T07:53:44;17.40;;;3.00;;
71606;SDS011;60641;53.556;9.914;2024-03-23T07:56:12;17.60;;;2.90;;
71606;SDS011;60641;53.556;9.914;2024-03-23T07:58:38;17.80;;;2.80;;
71606;SDS011;60641;53.556;9.914;2024-03-23T08:01:05;19.80;;;3.00;;
71606;SDS011;60641;53.556;9.914;2024-03-23T08:03:36;20.60;;;3.50;;
71606;SDS011;60641;53.556;9.914;2024-03-23T08:08:36;18.40;;;2.40;;
71606;SDS011;60641;53.556;9.914;2024-03-23T08:11:03;14.20;;;2.40;;
71606;SDS011;60641;53.556;9.914;2024-03-23T08:13:30;16.20;;;3.00;;
71606;SDS011;60641;53.556;9.914;2024-03-23T08:15:57;17.20;;;3.40;;
71606;SDS011;60641;53.556;9.914;2024-03-23T08:18:24;14.30;;;2.40;;
71606;SDS011;60641;53.556;9.914;2024-03-23T08:20:59;16.30;;;2.40;;
71606;SDS011;60641;53.556;9.914;2024-03-23T08:23:31;15.80;;;2.50;;
71606;SDS011;60641;53.556;9.914;2024-03-23T08:26:05;14.70;;;2.50;;
71606;SDS011;60641;53.556;9.914;2024-03-23T08:28:32;17.80;;;2.60;;
71606;SDS011;60641;53.556;9.914;2024-03-23T08:31:03;15.50;;;2.20;;
71606;SDS011;60641;53.556;9.914;2024-03-23T08:33:33;10.00;;;2.00;;
71606;SDS011;60641;53.556;9.914;2024-03-23T08:36:06;16.90;;;2.30;;
71606;SDS011;60641;53.556;9.914;2024-03-23T08:38:34;18.10;;;2.20;;
71606;SDS011;60641;53.556;9.914;2024-03-23T08:41:04;16.10;;;2.10;;
71606;SDS011;60641;53.556;9.914;2024-03-23T08:43:40;10.80;;;1.90;;
71606;SDS011;60641;53.556;9.914;2024-03-23T08:46:11;15.80;;;2.50;;
71606;SDS011;60641;53.556;9.914;2024-03-23T08:48:38;10.90;;;2.00;;
71606;SDS011;60641;53.556;9.914;2024-03-23T08:51:05;15.20;;;2.10;;
71606;SDS011;60641;53.556;9.914;2024-03-23T08:53:35;15.10;;;2.40;;
71606;SDS011;60641;53.556;9.914;2024-03-23T08:56:02;14.50;;;2.30;;
71606;SDS011;60641;53.556;9.914;2024-03-23T08:58:29;15.70;;;2.60;;
71606;SDS011;60641;53.556;9.914;2024-03-23T09:00:57;16.20;;;2.50;;
71606;SDS011;60641;53.556;9.914;2024-03-23T09:03:35;15.20;;;2.50;;
71606;SDS011;60641;53.556;9.914;2024-03-23T09:06:02;16.40;;;2.50;;
71606;SDS011;60641;53.556;9.914;2024-03-23T09:08:41;12.80;;;2.10;;
71606;SDS011;60641;53.556;9.914;2024-03-23T09:11:09;14.10;;;2.20;;
71606;SDS011;60641;53.556;9.914;2024-03-23T09:13:38;13.70;;;1.80;;
71606;SDS011;60641;53.556;9.914;2024-03-23T09:16:05;16.60;;;2.30;;
71606;SDS011;60641;53.556;9.914;2024-03-23T09:18:32;15.30;;;2.20;;
71606;SDS011;60641;53.556;9.914;2024-03-23T09:20:59;10.70;;;2.00;;
71606;SDS011;60641;53.556;9.914;2024-03-23T09:23:26;14.40;;;1.80;;
71606;SDS011;60641;53.556;9.914;2024-03-23T09:25:52;12.50;;;1.80;;
71606;SDS011;60641;53.556;9.914;2024-03-23T09:28:19;13.70;;;1.80;;
71606;SDS011;60641;53.556;9.914;2024-03-23T09:30:45;9.70;;;1.60;;
71606;SDS011;60641;53.556;9.914;2024-03-23T09:33:12;11.60;;;2.00;;
71606;SDS011;60641;53.556;9.914;2024-03-23T09:35:42;13.20;;;1.90;;
71606;SDS011;60641;53.556;9.914;2024-03-23T09:38:10;13.20;;;1.90;;
71606;SDS011;60641;53.556;9.914;2024-03-23T09:40:40;11.90;;;2.00;;
71606;SDS011;60641;53.556;9.914;2024-03-23T09:43:06;10.00;;;1.50;;
71606;SDS011;60641;53.556;9.914;2024-03-23T09:45:35;13.40;;;1.50;;
71606;SDS011;60641;53.556;9.914;2024-03-23T09:48:05;12.70;;;1.80;;
71606;SDS011;60641;53.556;9.914;2024-03-23T09:50:32;10.20;;;1.60;;
71606;SDS011;60641;53.556;9.914;2024-03-23T09:52:59;11.50;;;1.60;;
71606;SDS011;60641;53.556;9.914;2024-03-23T09:55:27;14.60;;;1.80;;
71606;SDS011;60641;53.556;9.914;2024-03-23T09:57:53;14.60;;;1.60;;
71606;SDS011;60641;53.556;9.914;2024-03-23T10:00:19;11.90;;;1.80;;
71606;SDS011;60641;53.556;9.914;2024-03-23T10:02:46;10.30;;;1.50;;
71606;SDS011;60641;53.556;9.914;2024-03-23T10:05:19;12.80;;;1.90;;
71606;SDS011;60641;53.556;9.914;2024-03-23T10:07:49;10.90;;;2.10;;
71606;SDS011;60641;53.556;9.914;2024-03-23T10:10:16;11.90;;;1.60;;
71606;SDS011;60641;53.556;9.914;2024-03-23T10:12:44;13.20;;;1.70;;
71606;SDS011;60641;53.556;9.914;2024-03-23T10:15:21;11.10;;;1.70;;
71606;SDS011;60641;53.556;9.914;2024-03-23T10:17:51;14.10;;;2.50;;
71606;SDS011;60641;53.556;9.914;2024-03-23T10:20:21;9.00;;;1.70;;
71606;SDS011;60641;53.556;9.914;2024-03-23T10:22:49;12.30;;;1.80;;
71606;SDS011;60641;53.556;9.914;2024-03-23T10:25:17;13.40;;;1.90;;
71606;SDS011;60641;53.556;9.914;2024-03-23T10:27:44;12.30;;;1.60;;
71606;SDS011;60641;53.556;9.914;2024-03-23T10:30:25;11.60;;;1.80;;
71606;SDS011;60641;53.556;9.914;2024-03-23T10:33:09;11.20;;;1.60;;
71606;SDS011;60641;53.556;9.914;2024-03-23T10:35:39;9.60;;;1.80;;
71606;SDS011;60641;53.556;9.914;2024-03-23T10:38:05;11.00;;;1.70;;
71606;SDS011;60641;53.556;9.914;2024-03-23T10:40:36;11.80;;;1.90;;
71606;SDS011;60641;53.556;9.914;2024-03-23T10:43:03;15.90;;;5.00;;
71606;SDS011;60641;53.556;9.914;2024-03-23T10:45:30;12.10;;;1.70;;
71606;SDS011;60641;53.556;9.914;2024-03-23T10:47:57;11.60;;;1.50;;
71606;SDS011;60641;53.556;9.914;2024-03-23T10:50:23;11.00;;;1.90;;
71606;SDS011;60641;53.556;9.914;2024-03-23T10:52:50;17.70;;;6.10;;
71606;SDS011;60641;53.556;9.914;2024-03-23T10:55:19;10.60;;;1.40;;
71606;SDS011;60641;53.556;9.914;2024-03-23T10:57:54;9.40;;;1.70;;
71606;SDS011;60641;53.556;9.914;2024-03-23T11:00:20;9.60;;;1.70;;
71606;SDS011;60641;53.556;9.914;2024-03-23T11:02:48;11.50;;;1.60;;
71606;SDS011;60641;53.556;9.914;2024-03-23T11:05:32;9.10;;;1.50;;
71606;SDS011;60641;53.556;9.914;2024-03-23T11:07:59;10.80;;;1.50;;
71606;SDS011;60641;53.556;9.914;2024-03-23T11:10:29;10.70;;;1.40;;
71606;SDS011;60641;53.556;9.914;2024-03-23T11:12:56;7.10;;;1.00;;
71606;SDS011;60641;53.556;9.914;2024-03-23T11:15:23;9.70;;;1.50;;
71606;SDS011;60641;53.556;9.914;2024-03-23T11:18:02;8.40;;;1.20;;
71606;SDS011;60641;53.556;9.914;2024-03-23T11:20:33;8.80;;;1.30;;
71606;SDS011;60641;53.556;9.914;2024-03-23T11:23:00;7.70;;;1.20;;
71606;SDS011;60641;53.556;9.914;2024-03-23T11:25:27;7.90;;;1.20;;
71606;SDS011;60641;53.556;9.914;2024-03-23T11:27:58;9.10;;;1.20;;
71606;SDS011;60641;53.556;9.914;2024-03-23T11:30:36;7.20;;;1.20;;
71606;SDS011;60641;53.556;9.914;2024-03-23T11:33:04;10.80;;;1.30;;
71606;SDS011;60641;53.556;9.914;2024-03-23T11:35:37;9.60;;;2.30;;
71606;SDS011;60641;53.556;9.914;2024-03-23T11:38:09;10.00;;;1.60;;
71606;SDS011;60641;53.556;9.914;2024-03-23T11:40:43;8.10;;;1.00;;
71606;SDS011;60641;53.556;9.914;2024-03-23T11:43:12;8.10;;;1.20;;
71606;SDS011;60641;53.556;9.914;2024-03-23T11:45:40;7.00;;;1.00;;
71606;SDS011;60641;53.556;9.914;2024-03-23T11:48:09;6.30;;;1.10;;
71606;SDS011;60641;53.556;9.914;2024-03-23T11:50:38;6.40;;;0.80;;
71606;SDS011;60641;53.556;9.914;2024-03-23T11:53:08;8.50;;;1.20;;
71606;SDS011;60641;53.556;9.914;2024-03-23T11:55:45;8.20;;;1.10;;
71606;SDS011;60641;53.556;9.914;2024-03-23T11:58:13;9.00;;;1.40;;
71606;SDS011;60641;53.556;9.914;2024-03-23T12:00:40;5.00;;;0.80;;
71606;SDS011;60641;53.556;9.914;2024-03-23T12:03:06;4.50;;;0.60;;
71606;SDS011;60641;53.556;9.914;2024-03-23T12:05:33;3.70;;;0.60;;
71606;SDS011;60641;53.556;9.914;2024-03-23T12:10:49;4.40;;;0.50;;
71606;SDS011;60641;53.556;9.914;2024-03-23T12:13:20;3.90;;;0.70;;
71606;SDS011;60641;53.556;9.914;2024-03-23T12:15:49;3.50;;;0.40;;
71606;SDS011;60641;53.556;9.914;2024-03-23T12:18:16;4.60;;;0.60;;
71606;SDS011;60641;53.556;9.914;2024-03-23T12:20:43;4.20;;;0.50;;
71606;SDS011;60641;53.556;9.914;2024-03-23T12:23:12;4.30;;;0.70;;
71606;SDS011;60641;53.556;9.914;2024-03-23T12:25:39;3.80;;;0.60;;
71606;SDS011;60641;53.556;9.914;2024-03-23T12:28:06;6.50;;;0.80;;
71606;SDS011;60641;53.556;9.914;2024-03-23T12:30:36;7.10;;;0.70;;
71606;SDS011;60641;53.556;9.914;2024-03-23T12:33:05;6.40;;;1.20;;
71606;SDS011;60641;53.556;9.914;2024-03-23T12:35:32;3.70;;;0.70;;
71606;SDS011;60641;53.556;9.914;2024-03-23T12:37:58;5.40;;;0.60;;
71606;SDS011;60641;53.556;9.914;2024-03-23T12:40:24;3.20;;;0.50;;
71606;SDS011;60641;53.556;9.914;2024-03-23T12:42:51;3.20;;;0.60;;
71606;SDS011;60641;53.556;9.914;2024-03-23T12:45:17;2.40;;;0.40;;
71606;SDS011;60641;53.556;9.914;2024-03-23T12:47:44;4.20;;;0.40;;
71606;SDS011;60641;53.556;9.914;2024-03-23T12:50:10;3.50;;;0.60;;
71606;SDS011;60641;53.556;9.914;2024-03-23T12:52:37;4.20;;;0.60;;
71606;SDS011;60641;53.556;9.914;2024-03-23T12:55:04;3.50;;;0.40;;
71606;SDS011;60641;53.556;9.914;2024-03-23T12:57:33;3.80;;;0.60;;
71606;SDS011;60641;53.556;9.914;2024-03-23T13:00:00;4.80;;;1.00;;
71606;SDS011;60641;53.556;9.914;2024-03-23T13:02:26;6.20;;;0.60;;
71606;SDS011;60641;53.556;9.914;2024-03-23T13:04:53;4.00;;;0.50;;
71606;SDS011;60641;53.556;9.914;2024-03-23T13:07:19;5.20;;;0.90;;
71606;SDS011;60641;53.556;9.914;2024-03-23T13:09:49;3.40;;;0.70;;
71606;SDS011;60641;53.556;9.914;2024-03-23T13:12:16;3.30;;;0.60;;
71606;SDS011;60641;53.556;9.914;2024-03-23T13:14:45;4.60;;;0.90;;
71606;SDS011;60641;53.556;9.914;2024-03-23T13:17:11;4.10;;;0.80;;
71606;SDS011;60641;53.556;9.914;2024-03-23T13:19:38;5.40;;;0.90;;
71606;SDS011;60641;53.556;9.914;2024-03-23T13:22:04;6.10;;;0.80;;
71606;SDS011;60641;53.556;9.914;2024-03-23T13:24:31;17.20;;;1.60;;
71606;SDS011;60641;53.556;9.914;2024-03-23T13:26:58;13.50;;;1.20;;
71606;SDS011;60641;53.556;9.914;2024-03-23T13:29:24;9.30;;;0.90;;
71606;SDS011;60641;53.556;9.914;2024-03-23T13:31:51;6.00;;;1.00;;
71606;SDS011;60641;53.556;9.914;2024-03-23T13:34:18;3.60;;;0.80;;
71606;SDS011;60641;53.556;9.914;2024-03-23T13:36:45;8.20;;;1.30;;
71606;SDS011;60641;53.556;9.914;2024-03-23T13:39:12;5.00;;;0.80;;
71606;SDS011;60641;53.556;9.914;2024-03-23T13:44:08;5.40;;;0.90;;
71606;SDS011;60641;53.556;9.914;2024-03-23T13:46:39;3.60;;;0.70;;
71606;SDS011;60641;53.556;9.914;2024-03-23T13:49:06;3.90;;;0.40;;
71606;SDS011;60641;53.556;9.914;2024-03-23T13:51:32;5.20;;;0.80;;
71606;SDS011;60641;53.556;9.914;2024-03-23T13:53:59;2.70;;;0.50;;
71606;SDS011;60641;53.556;9.914;2024-03-23T13:56:28;2.00;;;0.40;;
71606;SDS011;60641;53.556;9.914;2024-03-23T13:58:55;1.40;;;0.30;;
71606;SDS011;60641;53.556;9.914;2024-03-23T14:01:22;3.10;;;0.50;;
71606;SDS011;60641;53.556;9.914;2024-03-23T14:03:48;3.70;;;0.60;;
71606;SDS011;60641;53.556;9.914;2024-03-23T14:06:15;2.90;;;0.50;;
71606;SDS011;60641;53.556;9.914;2024-03-23T14:08:41;3.60;;;0.40;;
71606;SDS011;60641;53.556;9.914;2024-03-23T14:11:09;3.70;;;0.30;;
71606;SDS011;60641;53.556;9.914;2024-03-23T14:13:36;3.00;;;0.40;;
71606;SDS011;60641;53.556;9.914;2024-03-23T14:16:03;3.00;;;0.60;;
71606;SDS011;60641;53.556;9.914;2024-03-23T14:18:30;2.90;;;0.50;;
71606;SDS011;60641;53.556;9.914;2024-03-23T14:20:57;6.20;;;0.60;;
71606;SDS011;60641;53.556;9.914;2024-03-23T14:23:25;3.70;;;0.60;;
71606;SDS011;60641;53.556;9.914;2024-03-23T14:25:55;4.90;;;0.80;;
71606;SDS011;60641;53.556;9.914;2024-03-23T14:28:22;4.20;;;0.70;;
71606;SDS011;60641;53.556;9.914;2024-03-23T14:30:49;4.30;;;0.60;;
71606;SDS011;60641;53.556;9.914;2024-03-23T14:33:16;6.10;;;0.80;;
71606;SDS011;60641;53.556;9.914;2024-03-23T14:35:51;6.40;;;1.00;;
71606;SDS011;60641;53.556;9.914;2024-03-23T14:38:19;5.20;;;1.00;;
71606;SDS011;60641;53.556;9.914;2024-03-23T14:40:46;8.80;;;1.70;;
71606;SDS011;60641;53.556;9.914;2024-03-23T14:43:12;5.80;;;0.80;;
71606;SDS011;60641;53.556;9.914;2024-03-23T14:45:48;5.90;;;0.80;;
71606;SDS011;60641;53.556;9.914;2024-03-23T14:48:41;5.50;;;0.80;;
71606;SDS011;60641;53.556;9.914;2024-03-23T14:51:08;7.00;;;0.60;;
71606;SDS011;60641;53.556;9.914;2024-03-23T14:53:35;7.20;;;1.00;;
71606;SDS011;60641;53.556;9.914;2024-03-23T14:56:04;5.60;;;0.80;;
71606;SDS011;60641;53.556;9.914;2024-03-23T14:58:30;4.80;;;0.70;;
71606;SDS011;60641;53.556;9.914;2024-03-23T15:01:04;6.80;;;0.90;;
71606;SDS011;60641;53.556;9.914;2024-03-23T15:03:30;5.30;;;0.60;;
71606;SDS011;60641;53.556;9.914;2024-03-23T15:05:58;3.60;;;0.60;;
71606;SDS011;60641;53.556;9.914;2024-03-23T15:08:26;5.60;;;0.50;;
71606;SDS011;60641;53.556;9.914;2024-03-23T15:10:54;5.10;;;0.80;;
71606;SDS011;60641;53.556;9.914;2024-03-23T15:13:20;4.40;;;0.60;;
71606;SDS011;60641;53.556;9.914;2024-03-23T15:15:49;3.00;;;0.60;;
71606;SDS011;60641;53.556;9.914;2024-03-23T15:18:15;2.90;;;0.50;;
71606;SDS011;60641;53.556;9.914;2024-03-23T15:20:55;1.90;;;0.40;;
71606;SDS011;60641;53.556;9.914;2024-03-23T15:23:22;4.00;;;0.40;;
71606;SDS011;60641;53.556;9.914;2024-03-23T15:25:59;2.40;;;0.40;;
71606;SDS011;60641;53.556;9.914;2024-03-23T15:28:27;4.30;;;0.50;;
71606;SDS011;60641;53.556;9.914;2024-03-23T15:31:07;4.80;;;0.60;;
71606;SDS011;60641;53.556;9.914;2024-03-23T15:33:35;3.90;;;0.50;;
71606;SDS011;60641;53.556;9.914;2024-03-23T15:36:02;3.50;;;0.50;;
71606;SDS011;60641;53.556;9.914;2024-03-23T15:38:30;4.60;;;0.60;;
71606;SDS011;60641;53.556;9.914;2024-03-23T15:40:57;5.00;;;0.60;;
71606;SDS011;60641;53.556;9.914;2024-03-23T15:43:24;5.10;;;0.70;;